sensor_id;sensor_type;location;lat;lon;timestamp;P1;durP1;ratioP1;P2;durP2;ratioP2
20956;SDS011;10637;47.970;7.830;2023-02-22T00:02:31;11.63;;;5.30;;
20956;SDS011;10637;47.970;7.830;2023-02-22T00:07:34;10.20;;;4.30;;
20956;SDS011;10637;47.970;7.830;2023-02-22T00:12:36;11.53;;;5.33;;
20956;SDS011;10637;47.970;7.830;2023-02-22T00:17:37;11.00;;;5.33;;
20956;SDS011;10637;47.970;7.830;2023-02-22T00:22:42;9.50;;;4.90;;
20956;SDS011;10637;47.970;7.830;2023-02-22T00:27:49;10.83;;;4.83;;
20956;SDS011;10637;47.970;7.830;2023-02-22T00:32:53;13.63;;;5.43;;
20956;SDS011;10637;47.970;7.830;2023-02-22T00:37:59;10.50;;;5.00;;
20956;SDS011;10637;47.970;7.830;2023-02-22T00:43:02;9.90;;;4.13;;
20956;SDS011;10637;47.970;7.830;2023-02-22T00:48:05;12.57;;;4.57;;
20956;SDS011;10637;47.970;7.830;2023-02-22T00:53:09;9.53;;;4.70;;
20956;SDS011;10637;47.970;7.830;2023-02-22T00:58:11;10.70;;;4.90;;
20956;SDS011;10637;47.970;7.830;2023-02-22T01:03:15;12.70;;;4.83;;
20956;SDS011;10637;47.970;7.830;2023-02-22T01:08:19;10.60;;;4.73;;
20956;SDS011;10637;47.970;7.830;2023-02-22T01:13:20;11.73;;;4.57;;
20956;SDS011;10637;47.970;7.830;2023-02-22T01:18:23;11.13;;;4.80;;
20956;SDS011;10637;47.970;7.830;2023-02-22T01:23:26;14.63;;;5.53;;
20956;SDS011;10637;47.970;7.830;2023-02-22T01:28:28;10.80;;;5.17;;
20956;SDS011;10637;47.970;7.830;2023-02-22T01:33:30;12.47;;;4.83;;
20956;SDS011;10637;47.970;7.830;2023-02-22T01:38:32;14.00;;;5.30;;
20956;SDS011;10637;47.970;7.830;2023-02-22T01:43:34;10.30;;;4.40;;
20956;SDS011;10637;47.970;7.830;2023-02-22T01:53:51;12.50;;;4.80;;
20956;SDS011;10637;47.970;7.830;2023-02-22T01:59:04;11.97;;;4.20;;
20956;SDS011;10637;47.970;7.830;2023-02-22T02:04:13;10.23;;;4.40;;
20956;SDS011;10637;47.970;7.830;2023-02-22T02:09:36;11.27;;;4.10;;
20956;SDS011;10637;47.970;7.830;2023-02-22T02:42:33;9.47;;;4.30;;
20956;SDS011;10637;47.970;7.830;2023-02-22T02:47:43;9.90;;;4.60;;
20956;SDS011;10637;47.970;7.830;2023-02-22T02:52:47;10.03;;;4.47;;
20956;SDS011;10637;47.970;7.830;2023-02-22T02:57:51;10.10;;;4.60;;
20956;SDS011;10637;47.970;7.830;2023-02-22T03:08:28;11.87;;;4.80;;
20956;SDS011;10637;47.970;7.830;2023-02-22T03:13:46;13.23;;;5.00;;
20956;SDS011;10637;47.970;7.830;2023-02-22T03:29:54;10.77;;;5.30;;
20956;SDS011;10637;47.970;7.830;2023-02-22T03:35:02;11.60;;;4.77;;
20956;SDS011;10637;47.970;7.830;2023-02-22T03:40:14;13.90;;;5.37;;
20956;SDS011;10637;47.970;7.830;2023-02-22T03:45:26;11.43;;;4.87;;
20956;SDS011;10637;47.970;7.830;2023-02-22T03:50:35;13.57;;;5.00;;
20956;SDS011;10637;47.970;7.830;2023-02-22T03:55:38;9.83;;;5.00;;
20956;SDS011;10637;47.970;7.830;2023-02-22T04:00:39;11.37;;;5.40;;
20956;SDS011;10637;47.970;7.830;2023-02-22T04:05:44;10.43;;;4.70;;
20956;SDS011;10637;47.970;7.830;2023-02-22T04:10:46;12.90;;;5.13;;
20956;SDS011;10637;47.970;7.830;2023-02-22T04:15:48;10.60;;;5.17;;
20956;SDS011;10637;47.970;7.830;2023-02-22T04:20:50;12.30;;;5.17;;
20956;SDS011;10637;47.970;7.830;2023-02-22T04:25:51;11.13;;;5.30;;
20956;SDS011;10637;47.970;7.830;2023-02-22T04:30:53;11.80;;;5.10;;
20956;SDS011;10637;47.970;7.830;2023-02-22T04:35:55;15.00;;;5.57;;
20956;SDS011;10637;47.970;7.830;2023-02-22T04:40:57;11.30;;;5.20;;
20956;SDS011;10637;47.970;7.830;2023-02-22T04:45:59;14.23;;;6.73;;
20956;SDS011;10637;47.970;7.830;2023-02-22T04:51:01;14.13;;;6.23;;
20956;SDS011;10637;47.970;7.830;2023-02-22T04:56:03;11.00;;;5.50;;
20956;SDS011;10637;47.970;7.830;2023-02-22T05:01:04;12.10;;;5.23;;
20956;SDS011;10637;47.970;7.830;2023-02-22T05:06:06;10.77;;;5.47;;
20956;SDS011;10637;47.970;7.830;2023-02-22T05:11:08;11.07;;;5.73;;
20956;SDS011;10637;47.970;7.830;2023-02-22T05:16:10;11.80;;;5.40;;
20956;SDS011;10637;47.970;7.830;2023-02-22T05:21:12;12.33;;;5.30;;
20956;SDS011;10637;47.970;7.830;2023-02-22T05:26:14;10.07;;;5.20;;
20956;SDS011;10637;47.970;7.830;2023-02-22T05:31:16;11.73;;;5.50;;
20956;SDS011;10637;47.970;7.830;2023-02-22T05:36:18;11.43;;;5.73;;
20956;SDS011;10637;47.970;7.830;2023-02-22T05:41:20;11.70;;;5.80;;
20956;SDS011;10637;47.970;7.830;2023-02-22T05:46:21;14.23;;;6.20;;
20956;SDS011;10637;47.970;7.830;2023-02-22T05:51:23;11.50;;;6.10;;
20956;SDS011;10637;47.970;7.830;2023-02-22T05:56:26;13.90;;;7.37;;
20956;SDS011;10637;47.970;7.830;2023-02-22T06:01:28;13.87;;;7.47;;
20956;SDS011;10637;47.970;7.830;2023-02-22T06:06:30;12.50;;;6.70;;
20956;SDS011;10637;47.970;7.830;2023-02-22T06:11:32;13.80;;;6.90;;
20956;SDS011;10637;47.970;7.830;2023-02-22T06:16:33;13.00;;;6.60;;
20956;SDS011;10637;47.970;7.830;2023-02-22T06:21:35;13.03;;;6.07;;
20956;SDS011;10637;47.970;7.830;2023-02-22T06:26:37;13.10;;;6.57;;
20956;SDS011;10637;47.970;7.830;2023-02-22T06:31:38;26.37;;;12.50;;
20956;SDS011;10637;47.970;7.830;2023-02-22T06:36:40;24.97;;;10.97;;
20956;SDS011;10637;47.970;7.830;2023-02-22T06:41:42;21.73;;;12.47;;
20956;SDS011;10637;47.970;7.830;2023-02-22T06:46:45;16.40;;;8.63;;
20956;SDS011;10637;47.970;7.830;2023-02-22T06:51:49;24.57;;;9.10;;
20956;SDS011;10637;47.970;7.830;2023-02-22T06:56:51;16.57;;;8.13;;
20956;SDS011;10637;47.970;7.830;2023-02-22T07:01:53;15.90;;;7.53;;
20956;SDS011;10637;47.970;7.830;2023-02-22T07:06:54;15.40;;;6.97;;
20956;SDS011;10637;47.970;7.830;2023-02-22T07:11:56;19.70;;;7.97;;
20956;SDS011;10637;47.970;7.830;2023-02-22T07:16:58;14.97;;;7.33;;
20956;SDS011;10637;47.970;7.830;2023-02-22T07:21:59;20.47;;;8.10;;
20956;SDS011;10637;47.970;7.830;2023-02-22T07:27:01;17.90;;;8.67;;
20956;SDS011;10637;47.970;7.830;2023-02-22T07:32:03;14.73;;;7.70;;
20956;SDS011;10637;47.970;7.830;2023-02-22T07:37:05;14.37;;;6.90;;
20956;SDS011;10637;47.970;7.830;2023-02-22T07:42:07;15.13;;;6.37;;
20956;SDS011;10637;47.970;7.830;2023-02-22T07:47:09;11.40;;;5.80;;
20956;SDS011;10637;47.970;7.830;2023-02-22T07:52:12;13.63;;;5.87;;
20956;SDS011;10637;47.970;7.830;2023-02-22T07:57:14;12.10;;;6.77;;
20956;SDS011;10637;47.970;7.830;2023-02-22T08:02:16;13.23;;;5.90;;
20956;SDS011;10637;47.970;7.830;2023-02-22T08:07:18;14.97;;;7.13;;
20956;SDS011;10637;47.970;7.830;2023-02-22T08:12:19;13.47;;;7.17;;
20956;SDS011;10637;47.970;7.830;2023-02-22T08:17:21;16.80;;;6.97;;
20956;SDS011;10637;47.970;7.830;2023-02-22T08:22:23;15.80;;;7.90;;
20956;SDS011;10637;47.970;7.830;2023-02-22T08:27:25;17.63;;;7.27;;
20956;SDS011;10637;47.970;7.830;2023-02-22T08:32:29;13.80;;;7.77;;
20956;SDS011;10637;47.970;7.830;2023-02-22T08:37:31;14.03;;;6.63;;
20956;SDS011;10637;47.970;7.830;2023-02-22T08:42:33;13.27;;;6.63;;
20956;SDS011;10637;47.970;7.830;2023-02-22T08:47:34;14.53;;;6.83;;
20956;SDS011;10637;47.970;7.830;2023-02-22T08:52:36;16.53;;;6.47;;
20956;SDS011;10637;47.970;7.830;2023-02-22T08:57:38;14.50;;;6.27;;
20956;SDS011;10637;47.970;7.830;2023-02-22T09:02:39;12.83;;;6.33;;
20956;SDS011;10637;47.970;7.830;2023-02-22T09:07:42;14.53;;;5.87;;
20956;SDS011;10637;47.970;7.830;2023-02-22T09:12:44;15.43;;;5.37;;
20956;SDS011;10637;47.970;7.830;2023-02-22T09:17:46;13.03;;;5.83;;
20956;SDS011;10637;47.970;7.830;2023-02-22T09:22:48;21.87;;;8.30;;
20956;SDS011;10637;47.970;7.830;2023-02-22T09:27:51;26.80;;;12.20;;
20956;SDS011;10637;47.970;7.830;2023-02-22T09:32:55;30.43;;;16.73;;
20956;SDS011;10637;47.970;7.830;2023-02-22T09:37:59;28.57;;;17.17;;
20956;SDS011;10637;47.970;7.830;2023-02-22T09:43:07;35.17;;;18.43;;
20956;SDS011;10637;47.970;7.830;2023-02-22T09:48:35;30.70;;;18.77;;
20956;SDS011;10637;47.970;7.830;2023-02-22T09:54:16;31.37;;;18.63;;
20956;SDS011;10637;47.970;7.830;2023-02-22T09:59:24;32.10;;;18.33;;
20956;SDS011;10637;47.970;7.830;2023-02-22T10:04:40;29.53;;;17.83;;
20956;SDS011;10637;47.970;7.830;2023-02-22T10:09:47;32.03;;;17.47;;
20956;SDS011;10637;47.970;7.830;2023-02-22T10:26:13;30.87;;;17.83;;
20956;SDS011;10637;47.970;7.830;2023-02-22T10:31:22;30.60;;;19.07;;
20956;SDS011;10637;47.970;7.830;2023-02-22T10:36:28;30.50;;;19.67;;
20956;SDS011;10637;47.970;7.830;2023-02-22T10:41:31;30.77;;;18.93;;
20956;SDS011;10637;47.970;7.830;2023-02-22T10:46:34;32.17;;;19.10;;
20956;SDS011;10637;47.970;7.830;2023-02-22T10:51:37;31.73;;;19.47;;
20956;SDS011;10637;47.970;7.830;2023-02-22T10:56:49;29.10;;;18.37;;
20956;SDS011;10637;47.970;7.830;2023-02-22T11:01:53;29.87;;;18.90;;
20956;SDS011;10637;47.970;7.830;2023-02-22T11:12:09;30.67;;;19.07;;
20956;SDS011;10637;47.970;7.830;2023-02-22T11:17:27;30.00;;;18.23;;
20956;SDS011;10637;47.970;7.830;2023-02-22T11:22:36;27.00;;;16.90;;
20956;SDS011;10637;47.970;7.830;2023-02-22T11:27:42;27.50;;;16.57;;
20956;SDS011;10637;47.970;7.830;2023-02-22T11:32:55;30.53;;;17.57;;
20956;SDS011;10637;47.970;7.830;2023-02-22T11:38:13;28.90;;;16.47;;
20956;SDS011;10637;47.970;7.830;2023-02-22T11:43:18;33.90;;;19.97;;
20956;SDS011;10637;47.970;7.830;2023-02-22T11:48:20;29.00;;;16.53;;
20956;SDS011;10637;47.970;7.830;2023-02-22T11:53:25;28.00;;;15.60;;
20956;SDS011;10637;47.970;7.830;2023-02-22T12:09:33;27.27;;;16.67;;
20956;SDS011;10637;47.970;7.830;2023-02-22T12:20:44;26.20;;;17.53;;
20956;SDS011;10637;47.970;7.830;2023-02-22T12:26:15;26.87;;;17.43;;
20956;SDS011;10637;47.970;7.830;2023-02-22T12:36:53;29.20;;;18.43;;
20956;SDS011;10637;47.970;7.830;2023-02-22T12:42:17;31.00;;;18.23;;
20956;SDS011;10637;47.970;7.830;2023-02-22T12:47:39;29.30;;;17.13;;
20956;SDS011;10637;47.970;7.830;2023-02-22T12:52:51;30.80;;;18.47;;
20956;SDS011;10637;47.970;7.830;2023-02-22T12:58:24;27.90;;;18.17;;
20956;SDS011;10637;47.970;7.830;2023-02-22T13:03:35;29.43;;;18.07;;
20956;SDS011;10637;47.970;7.830;2023-02-22T13:19:23;26.30;;;17.37;;
20956;SDS011;10637;47.970;7.830;2023-02-22T13:24:38;33.10;;;17.80;;
20956;SDS011;10637;47.970;7.830;2023-02-22T13:29:48;28.67;;;18.40;;
20956;SDS011;10637;47.970;7.830;2023-02-22T13:40:40;31.53;;;18.27;;
20956;SDS011;10637;47.970;7.830;2023-02-22T13:46:04;28.57;;;17.63;;
20956;SDS011;10637;47.970;7.830;2023-02-22T13:56:47;35.00;;;17.20;;
20956;SDS011;10637;47.970;7.830;2023-02-22T14:01:51;29.70;;;18.50;;
20956;SDS011;10637;47.970;7.830;2023-02-22T14:06:57;30.23;;;19.40;;
20956;SDS011;10637;47.970;7.830;2023-02-22T14:12:04;31.23;;;18.33;;
20956;SDS011;10637;47.970;7.830;2023-02-22T14:22:24;32.63;;;19.00;;
20956;SDS011;10637;47.970;7.830;2023-02-22T14:27:37;29.63;;;18.37;;
20956;SDS011;10637;47.970;7.830;2023-02-22T14:32:41;30.33;;;17.33;;
20956;SDS011;10637;47.970;7.830;2023-02-22T14:37:42;32.50;;;18.53;;
20956;SDS011;10637;47.970;7.830;2023-02-22T14:48:27;29.77;;;17.17;;
20956;SDS011;10637;47.970;7.830;2023-02-22T14:53:40;30.37;;;18.47;;
20956;SDS011;10637;47.970;7.830;2023-02-22T14:58:47;31.97;;;19.63;;
20956;SDS011;10637;47.970;7.830;2023-02-22T15:03:59;35.03;;;19.23;;
20956;SDS011;10637;47.970;7.830;2023-02-22T15:09:21;31.33;;;19.33;;
20956;SDS011;10637;47.970;7.830;2023-02-22T15:14:32;32.33;;;20.63;;
20956;SDS011;10637;47.970;7.830;2023-02-22T15:19:39;37.17;;;22.07;;
20956;SDS011;10637;47.970;7.830;2023-02-22T15:24:42;34.20;;;20.50;;
20956;SDS011;10637;47.970;7.830;2023-02-22T15:29:44;34.07;;;20.77;;
20956;SDS011;10637;47.970;7.830;2023-02-22T15:34:46;32.47;;;20.83;;
20956;SDS011;10637;47.970;7.830;2023-02-22T15:39:48;31.77;;;19.47;;
20956;SDS011;10637;47.970;7.830;2023-02-22T15:44:59;32.87;;;20.40;;
20956;SDS011;10637;47.970;7.830;2023-02-22T15:55:18;38.97;;;19.93;;
20956;SDS011;10637;47.970;7.830;2023-02-22T16:00:32;34.80;;;20.67;;
20956;SDS011;10637;47.970;7.830;2023-02-22T16:05:41;32.37;;;18.80;;
20956;SDS011;10637;47.970;7.830;2023-02-22T16:11:08;36.37;;;21.20;;
20956;SDS011;10637;47.970;7.830;2023-02-22T16:21:20;37.57;;;19.13;;
20956;SDS011;10637;47.970;7.830;2023-02-22T16:26:29;32.83;;;18.30;;
20956;SDS011;10637;47.970;7.830;2023-02-22T16:31:35;40.53;;;20.70;;
20956;SDS011;10637;47.970;7.830;2023-02-22T16:41:44;47.97;;;28.00;;
20956;SDS011;10637;47.970;7.830;2023-02-22T16:46:46;55.87;;;30.63;;
20956;SDS011;10637;47.970;7.830;2023-02-22T16:51:52;40.37;;;19.77;;
20956;SDS011;10637;47.970;7.830;2023-02-22T16:56:56;36.80;;;19.00;;
20956;SDS011;10637;47.970;7.830;2023-02-22T17:02:02;39.50;;;20.67;;
20956;SDS011;10637;47.970;7.830;2023-02-22T17:07:07;37.47;;;21.13;;
20956;SDS011;10637;47.970;7.830;2023-02-22T17:12:10;36.37;;;22.30;;
20956;SDS011;10637;47.970;7.830;2023-02-22T17:17:12;41.60;;;21.87;;
20956;SDS011;10637;47.970;7.830;2023-02-22T17:22:16;39.63;;;19.77;;
20956;SDS011;10637;47.970;7.830;2023-02-22T17:27:19;37.93;;;21.30;;
20956;SDS011;10637;47.970;7.830;2023-02-22T17:32:21;37.27;;;20.03;;
20956;SDS011;10637;47.970;7.830;2023-02-22T17:37:22;41.57;;;21.40;;
20956;SDS011;10637;47.970;7.830;2023-02-22T17:42:25;45.27;;;22.10;;
20956;SDS011;10637;47.970;7.830;2023-02-22T17:47:27;37.63;;;20.73;;
20956;SDS011;10637;47.970;7.830;2023-02-22T17:52:28;43.67;;;21.90;;
20956;SDS011;10637;47.970;7.830;2023-02-22T17:57:30;37.87;;;22.53;;
20956;SDS011;10637;47.970;7.830;2023-02-22T18:02:32;40.27;;;23.50;;
20956;SDS011;10637;47.970;7.830;2023-02-22T18:07:35;43.27;;;24.00;;
20956;SDS011;10637;47.970;7.830;2023-02-22T18:12:37;37.90;;;22.27;;
20956;SDS011;10637;47.970;7.830;2023-02-22T18:17:40;46.70;;;23.60;;
20956;SDS011;10637;47.970;7.830;2023-02-22T18:22:42;43.80;;;23.13;;
20956;SDS011;10637;47.970;7.830;2023-02-22T18:27:44;44.03;;;25.47;;
20956;SDS011;10637;47.970;7.830;2023-02-22T18:32:46;42.97;;;24.17;;
20956;SDS011;10637;47.970;7.830;2023-02-22T18:37:48;45.97;;;26.00;;
20956;SDS011;10637;47.970;7.830;2023-02-22T18:42:49;45.43;;;25.70;;
20956;SDS011;10637;47.970;7.830;2023-02-22T18:47:51;51.03;;;26.33;;
20956;SDS011;10637;47.970;7.830;2023-02-22T18:52:53;48.57;;;25.77;;
20956;SDS011;10637;47.970;7.830;2023-02-22T18:57:55;41.10;;;22.50;;
20956;SDS011;10637;47.970;7.830;2023-02-22T19:02:57;47.83;;;26.13;;
20956;SDS011;10637;47.970;7.830;2023-02-22T19:07:59;34.20;;;20.90;;
20956;SDS011;10637;47.970;7.830;2023-02-22T19:13:01;37.43;;;18.50;;
20956;SDS011;10637;47.970;7.830;2023-02-22T19:18:03;36.00;;;20.07;;
20956;SDS011;10637;47.970;7.830;2023-02-22T19:23:05;29.70;;;17.23;;
20956;SDS011;10637;47.970;7.830;2023-02-22T19:28:10;31.50;;;16.83;;
20956;SDS011;10637;47.970;7.830;2023-02-22T19:33:14;26.10;;;13.97;;
20956;SDS011;10637;47.970;7.830;2023-02-22T19:38:16;23.77;;;13.50;;
20956;SDS011;10637;47.970;7.830;2023-02-22T19:43:18;23.13;;;13.13;;
20956;SDS011;10637;47.970;7.830;2023-02-22T19:48:19;23.70;;;12.03;;
20956;SDS011;10637;47.970;7.830;2023-02-22T19:53:21;21.67;;;11.97;;
20956;SDS011;10637;47.970;7.830;2023-02-22T19:58:23;29.77;;;12.83;;
20956;SDS011;10637;47.970;7.830;2023-02-22T20:03:24;20.77;;;12.30;;
20956;SDS011;10637;47.970;7.830;2023-02-22T20:08:27;22.20;;;11.60;;
20956;SDS011;10637;47.970;7.830;2023-02-22T20:13:28;19.70;;;10.60;;
20956;SDS011;10637;47.970;7.830;2023-02-22T20:18:30;19.20;;;10.23;;
20956;SDS011;10637;47.970;7.830;2023-02-22T20:23:32;18.93;;;9.23;;
20956;SDS011;10637;47.970;7.830;2023-02-22T20:28:34;20.10;;;9.37;;
20956;SDS011;10637;47.970;7.830;2023-02-22T20:33:36;24.03;;;10.47;;
20956;SDS011;10637;47.970;7.830;2023-02-22T20:38:42;19.73;;;10.80;;
20956;SDS011;10637;47.970;7.830;2023-02-22T20:43:47;21.80;;;10.73;;
20956;SDS011;10637;47.970;7.830;2023-02-22T20:48:53;17.77;;;10.13;;
20956;SDS011;10637;47.970;7.830;2023-02-22T20:53:57;18.60;;;9.47;;
20956;SDS011;10637;47.970;7.830;2023-02-22T20:59:00;21.10;;;10.33;;
20956;SDS011;10637;47.970;7.830;2023-02-22T21:04:05;18.97;;;10.03;;
20956;SDS011;10637;47.970;7.830;2023-02-22T21:09:10;20.20;;;10.50;;
20956;SDS011;10637;47.970;7.830;2023-02-22T21:14:14;20.60;;;9.67;;
20956;SDS011;10637;47.970;7.830;2023-02-22T21:19:19;22.40;;;10.17;;
20956;SDS011;10637;47.970;7.830;2023-02-22T21:24:26;24.07;;;12.00;;
20956;SDS011;10637;47.970;7.830;2023-02-22T21:29:29;18.83;;;9.90;;
20956;SDS011;10637;47.970;7.830;2023-02-22T21:34:34;20.87;;;9.67;;
20956;SDS011;10637;47.970;7.830;2023-02-22T21:39:36;20.73;;;10.47;;
20956;SDS011;10637;47.970;7.830;2023-02-22T21:44:38;20.00;;;9.83;;
20956;SDS011;10637;47.970;7.830;2023-02-22T21:49:40;17.57;;;8.43;;
20956;SDS011;10637;47.970;7.830;2023-02-22T21:54:41;20.37;;;9.67;;
20956;SDS011;10637;47.970;7.830;2023-02-22T21:59:44;18.07;;;9.40;;
20956;SDS011;10637;47.970;7.830;2023-02-22T22:04:46;21.93;;;9.80;;
20956;SDS011;10637;47.970;7.830;2023-02-22T22:09:48;22.90;;;9.60;;
20956;SDS011;10637;47.970;7.830;2023-02-22T22:14:56;20.37;;;8.90;;
20956;SDS011;10637;47.970;7.830;2023-02-22T22:19:58;19.87;;;10.83;;
20956;SDS011;10637;47.970;7.830;2023-02-22T22:25:00;23.73;;;9.90;;
20956;SDS011;10637;47.970;7.830;2023-02-22T22:30:05;22.43;;;9.53;;
20956;SDS011;10637;47.970;7.830;2023-02-22T22:35:08;22.43;;;10.17;;
20956;SDS011;10637;47.970;7.830;2023-02-22T22:40:14;22.97;;;10.47;;
20956;SDS011;10637;47.970;7.830;2023-02-22T22:45:17;19.73;;;8.77;;
20956;SDS011;10637;47.970;7.830;2023-02-22T22:50:19;17.07;;;8.60;;
20956;SDS011;10637;47.970;7.830;2023-02-22T22:55:26;19.57;;;8.43;;
20956;SDS011;10637;47.970;7.830;2023-02-22T23:00:28;22.53;;;8.77;;
20956;SDS011;10637;47.970;7.830;2023-02-22T23:05:40;15.93;;;7.00;;
20956;SDS011;10637;47.970;7.830;2023-02-22T23:10:46;21.80;;;7.50;;
20956;SDS011;10637;47.970;7.830;2023-02-22T23:15:48;19.50;;;7.30;;
20956;SDS011;10637;47.970;7.830;2023-02-22T23:20:51;19.60;;;7.43;;
20956;SDS011;10637;47.970;7.830;2023-02-22T23:26:05;15.57;;;7.40;;
20956;SDS011;10637;47.970;7.830;2023-02-22T23:31:15;15.83;;;6.10;;
20956;SDS011;10637;47.970;7.830;2023-02-22T23:36:18;15.87;;;6.63;;
20956;SDS011;10637;47.970;7.830;2023-02-22T23:41:20;14.50;;;6.17;;
20956;SDS011;10637;47.970;7.830;2023-02-22T23:46:25;14.13;;;5.30;;
20956;SDS011;10637;47.970;7.830;2023-02-22T23:51:28;13.27;;;5.27;;
20956;SDS011;10637;47.970;7.830;2023-02-22T23:56:39;12.53;;;5.80;;
